Time;durP1;ratioP1;P1;durP2;ratioP2;P2;SDS_P1;SDS_P2;PMS_P1;PMS_P2;Temp;Humidity;BMP_temperature;BMP_pressure;BME280_temperature;BME280_humidity;BME280_pressure;Samples;Min_cycle;Max_cycle;Signal;HPM_P1;HPM_P2
2021/11/07 00:06:46;;;;;;;3.55;2.58;;;11.80;77.30;;;;;;5088682;28;20030;-76
2021/11/07 00:11:39;;;;;;;6.38;3.22;;;11.80;77.90;;;;;;5087799;28;20035;-76
2021/11/07 00:14:07;;;;;;;3.63;2.25;;;11.80;77.90;;;;;;5090119;28;20058;-76
2021/11/07 00:16:35;;;;;;;3.95;2.72;;;11.80;77.80;;;;;;5090366;28;20027;-74
2021/11/07 00:19:28;;;;;;;4.18;2.42;;;11.90;78.20;;;;;;5088366;28;20071;-75
2021/11/07 00:22:33;;;;;;;4.80;2.60;;;11.80;77.90;;;;;;5087994;28;20114;-76
2021/11/07 00:24:53;;;;;;;4.28;2.80;;;11.90;77.80;;;;;;5086027;28;20039;-76
2021/11/07 00:27:29;;;;;;;4.03;2.00;;;11.90;77.90;;;;;;5088389;28;20039;-75
2021/11/07 00:38:00;;;;;;;3.47;2.20;;;11.90;78.00;;;;;;5088742;28;20024;-76
2021/11/07 00:42:53;;;;;;;3.00;1.70;;;11.90;77.80;;;;;;5090287;28;20040;-76
2021/11/07 00:50:43;;;;;;;3.00;1.80;;;12.00;77.80;;;;;;5087651;28;20429;-76
2021/11/07 00:58:37;;;;;;;4.45;2.00;;;12.00;78.00;;;;;;5090802;28;20024;-76
2021/11/07 01:01:11;;;;;;;2.50;1.50;;;12.00;78.00;;;;;;5088999;28;20024;-75
2021/11/07 01:03:36;;;;;;;;;;;12.00;78.00;;;;;;5088004;28;20024;-77
2021/11/07 01:06:02;;;;;;;2.30;1.50;;;12.00;77.30;;;;;;5087854;28;19915;-76
2021/11/07 01:08:28;;;;;;;2.08;1.13;;;12.00;78.00;;;;;;5086938;28;20032;-76
2021/11/07 01:10:54;;;;;;;3.70;1.25;;;12.10;78.20;;;;;;5090025;28;20020;-76
2021/11/07 01:13:20;;;;;;;2.13;1.27;;;12.00;78.10;;;;;;5088994;28;20069;-77
2021/11/07 01:15:45;;;;;;;4.72;1.60;;;12.10;78.20;;;;;;5087363;28;20060;-77
2021/11/07 01:18:11;;;;;;;2.28;1.17;;;12.10;78.10;;;;;;5087733;28;20377;-77
2021/11/07 01:20:37;;;;;;;2.03;1.33;;;12.10;78.00;;;;;;5088318;28;20481;-77
2021/11/07 01:25:33;;;;;;;3.20;1.40;;;12.10;78.20;;;;;;5089363;28;20039;-77
2021/11/07 01:27:59;;;;;;;2.28;1.30;;;12.00;78.00;;;;;;5087434;28;20040;-76
2021/11/07 01:30:27;;;;;;;3.58;1.40;;;12.10;77.90;;;;;;5087670;28;20044;-76
2021/11/07 01:33:14;;;;;;;4.57;1.40;;;12.10;78.30;;;;;;5087872;28;20027;-77
2021/11/07 01:35:51;;;;;;;2.70;1.20;;;12.10;78.20;;;;;;5088994;28;20077;-76
2021/11/07 01:38:35;;;;;;;2.38;1.30;;;12.10;78.40;;;;;;5070906;28;20028;-76
2021/11/07 01:41:04;;;;;;;2.28;1.27;;;12.10;78.40;;;;;;5089712;28;20400;-77
2021/11/07 01:43:31;;;;;;;2.10;1.27;;;12.10;78.30;;;;;;5093313;28;20036;-76
2021/11/07 01:46:25;;;;;;;3.33;1.25;;;12.10;78.30;;;;;;5091044;28;20160;-77
2021/11/07 01:49:09;;;;;;;3.45;1.40;;;12.10;78.40;;;;;;5090604;28;20048;-77
2021/11/07 01:51:36;;;;;;;3.38;1.40;;;12.10;78.40;;;;;;5091287;28;20480;-77
2021/11/07 01:54:17;;;;;;;2.38;1.30;;;12.10;78.60;;;;;;5091012;28;20105;-77
2021/11/07 01:56:43;;;;;;;2.25;1.38;;;12.10;78.40;;;;;;5092434;28;20024;-77
2021/11/07 01:59:08;;;;;;;3.50;1.20;;;12.10;78.60;;;;;;5092039;28;20051;-76
2021/11/07 02:01:35;;;;;;;3.78;1.30;;;12.10;78.80;;;;;;5093400;28;20099;-77
2021/11/07 02:04:00;;;;;;;3.15;1.10;;;12.10;78.70;;;;;;5092423;28;20028;-77
2021/11/07 02:06:27;;;;;;;2.08;1.00;;;12.10;78.80;;;;;;5090580;28;20457;-76
2021/11/07 02:08:52;;;;;;;2.17;1.02;;;12.10;79.00;;;;;;5090574;28;20496;-76
2021/11/07 02:11:18;;;;;;;2.90;1.30;;;12.20;79.00;;;;;;5090782;28;20138;-77
2021/11/07 02:13:46;;;;;;;2.45;1.10;;;12.20;79.00;;;;;;5094253;28;20102;-76
2021/11/07 02:16:11;;;;;;;3.55;1.10;;;12.10;79.00;;;;;;5106563;28;20040;-77
2021/11/07 02:18:38;;;;;;;3.33;1.38;;;12.10;79.10;;;;;;5091607;28;20036;-77
2021/11/07 02:21:05;;;;;;;3.35;1.17;;;12.10;79.00;;;;;;5092003;28;20024;-76
2021/11/07 02:23:32;;;;;;;2.63;1.27;;;12.10;79.50;;;;;;5090803;28;20111;-77
2021/11/07 02:26:03;;;;;;;5.85;1.35;;;12.10;79.70;;;;;;5093088;28;20103;-76
2021/11/07 02:28:43;;;;;;;3.15;1.10;;;12.10;79.80;;;;;;5092115;28;20039;-76
2021/11/07 02:31:13;;;;;;;2.53;1.00;;;12.10;79.70;;;;;;5091527;28;20064;-77
2021/11/07 02:33:39;;;;;;;2.72;1.00;;;12.10;80.10;;;;;;5090532;28;20212;-76
2021/11/07 02:36:05;;;;;;;1.90;0.82;;;12.10;80.60;;;;;;5091367;28;20400;-77
2021/11/07 02:38:31;;;;;;;2.60;0.98;;;12.10;80.30;;;;;;5090241;28;20025;-77
2021/11/07 02:40:57;;;;;;;3.55;1.15;;;12.10;80.70;;;;;;5091583;28;20135;-77
2021/11/07 02:43:23;;;;;;;2.33;1.00;;;12.10;80.80;;;;;;5091299;28;20117;-77
2021/11/07 02:45:48;;;;;;;2.70;1.05;;;12.10;80.60;;;;;;5089549;28;20039;-77
2021/11/07 02:48:14;;;;;;;1.83;0.82;;;12.20;80.90;;;;;;5089706;28;20048;-77
2021/11/07 02:50:40;;;;;;;2.55;1.10;;;12.20;80.70;;;;;;5089984;28;20028;-77
2021/11/07 02:53:05;;;;;;;2.28;1.10;;;12.10;80.80;;;;;;5090988;28;20514;-77
2021/11/07 02:55:31;;;;;;;2.47;1.17;;;12.20;80.80;;;;;;5090645;28;20024;-77
2021/11/07 02:57:59;;;;;;;2.63;0.88;;;12.20;81.30;;;;;;5089700;28;20059;-77
2021/11/07 03:00:26;;;;;;;2.15;1.10;;;12.20;81.30;;;;;;5089336;28;20028;-77
2021/11/07 03:02:52;;;;;;;1.98;1.00;;;12.20;81.20;;;;;;5089618;28;20020;-76
2021/11/07 03:05:19;;;;;;;2.30;1.08;;;12.10;81.20;;;;;;5089987;28;20028;-77
2021/11/07 03:07:45;;;;;;;2.80;0.90;;;12.10;81.60;;;;;;5091970;28;20064;-77
2021/11/07 03:10:14;;;;;;;1.70;0.80;;;12.10;81.30;;;;;;5089659;28;20059;-77
2021/11/07 03:12:40;;;;;;;1.15;0.70;;;12.10;81.40;;;;;;5089411;28;20031;-77
2021/11/07 03:15:08;;;;;;;2.25;1.00;;;12.10;81.90;;;;;;5089157;28;20051;-77
2021/11/07 03:17:34;;;;;;;1.33;0.77;;;12.10;82.20;;;;;;5091137;28;20056;-77
2021/11/07 03:20:00;;;;;;;2.13;0.95;;;12.10;82.30;;;;;;5091936;28;20020;-77
2021/11/07 03:22:28;;;;;;;2.40;0.98;;;12.10;82.80;;;;;;5106060;28;20473;-78
2021/11/07 03:24:55;;;;;;;3.78;1.00;;;12.10;82.30;;;;;;5089667;28;20039;-77
2021/11/07 03:27:30;;;;;;;1.77;0.80;;;12.10;82.60;;;;;;5089503;28;20016;-78
2021/11/07 03:29:58;;;;;;;1.30;0.77;;;12.10;82.30;;;;;;5089470;28;20047;-78
2021/11/07 03:32:28;;;;;;;1.40;0.80;;;12.10;82.70;;;;;;5089419;28;20017;-77
2021/11/07 03:34:58;;;;;;;1.52;0.70;;;12.10;83.00;;;;;;5091537;28;20020;-77
2021/11/07 03:37:26;;;;;;;1.58;0.82;;;12.10;83.00;;;;;;5090212;28;20056;-77
2021/11/07 03:39:55;;;;;;;1.27;0.85;;;12.10;83.00;;;;;;5090806;28;20020;-77
2021/11/07 03:42:23;;;;;;;2.03;0.77;;;12.10;83.70;;;;;;5088873;28;20055;-77
2021/11/07 03:44:49;;;;;;;1.17;0.60;;;12.10;83.10;;;;;;5084721;28;20020;-78
2021/11/07 03:47:15;;;;;;;1.60;0.75;;;12.10;83.00;;;;;;5080757;28;20102;-78
2021/11/07 03:49:42;;;;;;;1.10;0.73;;;12.10;83.40;;;;;;5092052;28;20503;-78
2021/11/07 03:52:09;;;;;;;3.00;0.80;;;12.10;83.10;;;;;;5090429;28;20036;-78
2021/11/07 03:54:35;;;;;;;2.33;0.90;;;12.10;83.40;;;;;;5088814;28;20032;-77
2021/11/07 03:57:04;;;;;;;1.77;0.80;;;12.20;83.30;;;;;;5089049;28;20028;-77
2021/11/07 03:59:31;;;;;;;1.50;0.80;;;12.10;83.70;;;;;;5088556;28;20036;-77
2021/11/07 04:01:57;;;;;;;2.10;0.90;;;12.10;84.00;;;;;;5091197;28;20020;-76
2021/11/07 04:04:23;;;;;;;2.15;0.70;;;12.10;83.90;;;;;;5089848;28;20032;-78
2021/11/07 04:06:50;;;;;;;1.42;0.70;;;12.20;83.80;;;;;;5087670;28;20051;-78
2021/11/07 04:09:16;;;;;;;2.70;1.05;;;12.20;83.90;;;;;;5090014;28;20036;-78
2021/11/07 04:11:43;;;;;;;2.75;0.90;;;12.20;83.90;;;;;;5088433;28;20028;-78
2021/11/07 04:14:11;;;;;;;2.30;1.00;;;12.20;84.30;;;;;;5089690;28;20027;-77
2021/11/07 04:16:37;;;;;;;1.10;0.82;;;12.20;83.90;;;;;;5091040;28;20500;-77
2021/11/07 04:19:04;;;;;;;1.95;0.80;;;12.20;84.40;;;;;;5088170;28;20027;-78
2021/11/07 04:21:30;;;;;;;2.53;0.70;;;12.20;84.70;;;;;;5088147;28;20093;-78
2021/11/07 04:23:56;;;;;;;2.55;0.90;;;12.20;84.70;;;;;;5088612;28;20495;-77
2021/11/07 04:26:22;;;;;;;1.17;0.82;;;12.20;84.60;;;;;;5090270;28;20089;-77
2021/11/07 04:28:48;;;;;;;2.50;0.90;;;12.20;85.20;;;;;;5091488;28;20022;-77
2021/11/07 04:31:14;;;;;;;1.20;0.90;;;12.20;84.50;;;;;;5091701;28;20496;-77
2021/11/07 04:33:40;;;;;;;1.23;0.82;;;12.20;84.80;;;;;;5090150;28;20073;-77
2021/11/07 04:36:06;;;;;;;2.72;1.00;;;12.20;84.60;;;;;;5088578;28;20028;-77
2021/11/07 04:38:34;;;;;;;2.67;0.82;;;12.20;84.40;;;;;;5088491;28;20078;-77
2021/11/07 04:41:00;;;;;;;1.75;0.70;;;12.30;84.50;;;;;;5090708;28;20121;-78
2021/11/07 04:43:26;;;;;;;2.50;0.80;;;12.30;84.70;;;;;;5105136;28;20492;-77
2021/11/07 04:45:51;;;;;;;1.60;0.90;;;12.30;84.90;;;;;;5089604;28;20127;-78
2021/11/07 04:48:18;;;;;;;1.58;0.65;;;12.30;84.70;;;;;;5088086;28;20096;-78
2021/11/07 04:50:46;;;;;;;1.13;0.70;;;12.30;85.00;;;;;;5090133;28;20032;-78
2021/11/07 04:53:12;;;;;;;2.58;0.90;;;12.30;84.90;;;;;;5089018;28;20169;-78
2021/11/07 04:55:41;;;;;;;0.90;0.70;;;12.30;84.80;;;;;;5091388;28;20024;-78
2021/11/07 04:58:08;;;;;;;2.15;0.82;;;12.30;85.30;;;;;;5087950;28;20037;-78
2021/11/07 05:00:35;;;;;;;1.88;0.50;;;12.30;84.90;;;;;;5088347;28;20083;-78
2021/11/07 05:03:02;;;;;;;1.58;0.88;;;12.30;85.20;;;;;;5088179;28;20095;-77
2021/11/07 05:05:28;;;;;;;1.80;0.77;;;12.30;85.00;;;;;;5088366;28;20059;-77
2021/11/07 05:07:56;;;;;;;2.10;0.98;;;12.30;85.10;;;;;;5090603;28;20024;-77
2021/11/07 05:10:22;;;;;;;1.25;0.65;;;12.30;85.40;;;;;;5089288;28;20028;-77
2021/11/07 05:12:48;;;;;;;1.63;0.75;;;12.30;85.10;;;;;;5089443;28;20438;-76
2021/11/07 05:15:15;;;;;;;2.67;0.85;;;12.30;85.30;;;;;;5088333;28;20031;-77
2021/11/07 05:17:41;;;;;;;3.08;0.80;;;12.40;85.40;;;;;;5090756;28;20397;-77
2021/11/07 05:20:08;;;;;;;1.45;0.65;;;12.40;86.00;;;;;;5092247;28;20036;-76
2021/11/07 05:22:34;;;;;;;3.50;0.70;;;12.40;85.30;;;;;;5094400;28;20020;-76
2021/11/07 05:25:00;;;;;;;1.20;0.60;;;12.40;85.60;;;;;;5102435;28;20399;-76
2021/11/07 05:27:26;;;;;;;0.82;0.60;;;12.40;85.30;;;;;;5098259;28;20511;-77
2021/11/07 05:29:52;;;;;;;2.58;0.60;;;12.40;85.50;;;;;;5092100;28;20535;-77
2021/11/07 05:32:18;;;;;;;2.10;0.60;;;12.50;85.60;;;;;;5091874;28;20020;-78
2021/11/07 05:34:45;;;;;;;0.88;0.60;;;12.40;85.80;;;;;;5094413;28;20468;-78
2021/11/07 05:37:11;;;;;;;2.05;0.70;;;12.40;85.40;;;;;;5091982;28;20111;-77
2021/11/07 05:39:37;;;;;;;1.02;0.65;;;12.50;85.80;;;;;;5091804;28;20103;-77
2021/11/07 05:42:03;;;;;;;0.90;0.50;;;12.50;85.50;;;;;;5091588;28;20028;-77
2021/11/07 05:44:29;;;;;;;1.45;0.65;;;12.50;85.80;;;;;;5091887;28;20020;-77
2021/11/07 05:46:55;;;;;;;1.90;0.70;;;12.50;85.50;;;;;;5093841;28;20028;-77
2021/11/07 05:49:22;;;;;;;0.98;0.60;;;12.50;85.70;;;;;;5092761;28;20048;-78
2021/11/07 05:51:47;;;;;;;1.05;0.60;;;12.60;85.70;;;;;;5091521;28;20032;-78
2021/11/07 05:54:13;;;;;;;0.88;0.45;;;12.60;85.80;;;;;;5091098;28;20485;-78
2021/11/07 05:56:39;;;;;;;1.45;0.60;;;12.60;85.70;;;;;;5092741;28;20028;-77
2021/11/07 05:59:05;;;;;;;1.08;0.60;;;12.60;85.50;;;;;;5093176;28;20020;-78
2021/11/07 06:01:30;;;;;;;1.35;0.50;;;12.60;85.80;;;;;;5091440;28;20028;-77
2021/11/07 06:03:56;;;;;;;1.98;0.57;;;12.60;86.90;;;;;;5091549;28;20400;-77
2021/11/07 06:06:22;;;;;;;1.70;0.50;;;12.60;86.20;;;;;;5087389;28;20024;-78
2021/11/07 06:08:48;;;;;;;1.38;0.60;;;12.50;86.10;;;;;;5091314;28;20115;-78
2021/11/07 06:11:14;;;;;;;1.55;0.70;;;12.50;86.20;;;;;;5092081;28;20459;-77
2021/11/07 06:13:40;;;;;;;1.85;0.70;;;12.50;85.90;;;;;;5093242;28;20035;-78
2021/11/07 06:16:05;;;;;;;1.95;0.63;;;12.50;86.70;;;;;;5092839;28;20507;-78
2021/11/07 06:18:31;;;;;;;1.42;0.60;;;12.50;86.30;;;;;;5090895;28;20146;-78
2021/11/07 06:20:57;;;;;;;1.42;0.80;;;12.50;86.50;;;;;;5091048;28;20484;-77
2021/11/07 06:23:24;;;;;;;1.48;0.60;;;12.50;86.70;;;;;;5090937;28;20392;-77
2021/11/07 06:25:49;;;;;;;1.48;0.50;;;12.50;86.70;;;;;;5094571;28;20130;-77
2021/11/07 06:28:16;;;;;;;1.02;0.60;;;12.60;86.70;;;;;;5090615;28;20106;-77
2021/11/07 06:30:42;;;;;;;1.83;0.47;;;12.50;87.00;;;;;;5090907;28;20043;-77
2021/11/07 06:33:08;;;;;;;1.33;0.52;;;12.50;86.60;;;;;;5091018;28;20027;-76
2021/11/07 06:35:34;;;;;;;2.35;0.60;;;12.50;86.50;;;;;;5091456;28;20037;-76
2021/11/07 06:38:00;;;;;;;1.52;0.57;;;12.50;87.20;;;;;;5092918;28;20016;-77
2021/11/07 06:40:26;;;;;;;1.27;0.50;;;12.50;87.00;;;;;;5086458;28;20056;-77
2021/11/07 06:42:52;;;;;;;1.17;0.73;;;12.60;87.10;;;;;;5091956;28;20051;-77
2021/11/07 06:45:17;;;;;;;1.05;0.50;;;12.50;87.10;;;;;;5090919;28;20090;-76
2021/11/07 06:47:43;;;;;;;0.82;0.50;;;12.60;87.20;;;;;;5089241;28;20029;-77
2021/11/07 06:50:11;;;;;;;1.58;0.60;;;12.60;87.00;;;;;;5086369;28;20127;-77
2021/11/07 06:52:37;;;;;;;1.05;0.60;;;12.60;87.10;;;;;;5090725;28;20111;-77
2021/11/07 06:55:05;;;;;;;2.00;0.50;;;12.60;88.20;;;;;;5088507;28;20036;-76
2021/11/07 06:57:31;;;;;;;1.40;0.80;;;12.60;87.20;;;;;;5088740;28;20025;-78
2021/11/07 06:59:57;;;;;;;2.92;0.60;;;12.60;87.00;;;;;;5085825;28;20498;-75
2021/11/07 07:02:23;;;;;;;1.50;0.50;;;12.60;87.50;;;;;;5086049;28;20035;-77
2021/11/07 07:04:49;;;;;;;0.95;0.50;;;12.60;87.50;;;;;;5087221;28;20107;-77
2021/11/07 07:07:15;;;;;;;1.75;0.60;;;12.60;87.50;;;;;;5088255;28;20107;-76
2021/11/07 07:09:46;;;;;;;0.80;0.43;;;12.60;87.40;;;;;;5086450;28;20032;-78
2021/11/07 07:14:56;;;;;;;2.70;0.60;;;12.60;87.70;;;;;;5085816;28;20036;-77
2021/11/07 07:18:30;;;;;;;1.17;0.55;;;12.70;87.50;;;;;;5085013;28;20111;-77
2021/11/07 07:30:34;;;;;;;1.70;0.50;;;12.70;88.00;;;;;;5083551;28;20024;-75
2021/11/07 07:33:13;;;;;;;1.30;0.60;;;12.80;87.80;;;;;;5085767;28;20097;-77
2021/11/07 07:35:39;;;;;;;2.22;0.55;;;12.80;87.70;;;;;;5089536;28;20554;-78
2021/11/07 07:38:04;;;;;;;1.23;0.40;;;12.80;88.00;;;;;;5083552;28;20052;-78
2021/11/07 07:40:30;;;;;;;1.13;0.68;;;12.80;87.70;;;;;;5089342;28;20020;-77
2021/11/07 07:42:56;;;;;;;2.08;0.50;;;12.80;87.60;;;;;;5087959;28;20040;-76
2021/11/07 07:45:22;;;;;;;0.82;0.50;;;12.80;88.60;;;;;;5083670;28;20028;-76
2021/11/07 07:47:49;;;;;;;1.40;0.50;;;12.80;88.10;;;;;;5082108;28;20048;-77
2021/11/07 07:50:17;;;;;;;2.15;0.57;;;12.90;88.20;;;;;;5089824;28;20451;-75
2021/11/07 07:52:43;;;;;;;2.47;0.63;;;12.90;88.20;;;;;;5090520;28;20020;-75
2021/11/07 07:55:10;;;;;;;1.48;0.63;;;12.90;88.10;;;;;;5090205;28;20032;-74
2021/11/07 07:57:36;;;;;;;1.70;0.68;;;13.00;88.10;;;;;;5087690;28;20062;-75
2021/11/07 08:00:11;;;;;;;1.63;0.63;;;13.00;88.40;;;;;;5088162;28;20016;-76
2021/11/07 08:02:38;;;;;;;1.63;0.70;;;13.00;88.30;;;;;;5089123;28;20477;-76
2021/11/07 08:05:05;;;;;;;1.52;0.70;;;13.00;88.70;;;;;;5089318;28;20020;-77
2021/11/07 08:07:30;;;;;;;1.80;0.68;;;13.00;88.70;;;;;;5094740;28;20076;-75
2021/11/07 08:09:56;;;;;;;2.50;0.80;;;13.10;88.30;;;;;;5092158;28;20065;-76
2021/11/07 08:12:23;;;;;;;3.83;0.80;;;13.10;88.20;;;;;;5089384;28;20039;-75
2021/11/07 08:14:49;;;;;;;1.73;0.70;;;13.10;88.50;;;;;;5091549;28;20020;-78
2021/11/07 08:17:15;;;;;;;1.88;0.60;;;13.10;89.00;;;;;;5090187;28;20030;-76
2021/11/07 08:19:41;;;;;;;1.25;0.63;;;13.20;89.20;;;;;;5089412;28;20056;-77
2021/11/07 08:22:08;;;;;;;1.45;1.00;;;13.20;88.90;;;;;;5090032;28;20032;-77
2021/11/07 08:24:35;;;;;;;1.00;0.70;;;13.40;89.00;;;;;;5089608;28;20031;-77
2021/11/07 08:27:02;;;;;;;0.93;0.57;;;13.50;89.60;;;;;;5099478;28;20043;-78
2021/11/07 08:29:28;;;;;;;2.50;1.00;;;13.60;88.80;;;;;;5088828;28;20163;-78
2021/11/07 08:31:54;;;;;;;0.90;0.50;;;13.60;88.30;;;;;;5091064;28;20524;-77
2021/11/07 08:34:25;;;;;;;1.05;0.40;;;13.60;88.10;;;;;;5090275;28;20031;-76
2021/11/07 08:39:24;;;;;;;1.48;0.70;;;13.50;87.90;;;;;;5086282;28;20028;-78
2021/11/07 08:42:02;;;;;;;0.93;0.60;;;13.60;88.50;;;;;;5090185;28;20058;-77
2021/11/07 09:01:08;;;;;;;0.50;0.50;;;13.60;88.90;;;;;;5087905;28;20049;-75
2021/11/07 09:06:25;;;;;;;1.52;0.50;;;13.60;88.80;;;;;;5089378;28;20044;-75
2021/11/07 09:08:52;;;;;;;0.63;0.50;;;13.70;88.50;;;;;;5089234;28;20039;-74
2021/11/07 09:11:19;;;;;;;0.80;0.50;;;13.70;89.00;;;;;;5088904;28;20043;-74
2021/11/07 09:13:46;;;;;;;0.60;0.50;;;13.80;89.10;;;;;;5086659;28;20121;-74
2021/11/07 09:16:14;;;;;;;1.65;0.47;;;13.90;88.90;;;;;;5089012;28;20020;-74
2021/11/07 09:18:41;;;;;;;0.90;0.52;;;13.90;88.70;;;;;;5089091;28;20035;-74
2021/11/07 09:21:11;;;;;;;0.80;0.43;;;13.90;88.10;;;;;;5087653;28;20028;-74
2021/11/07 09:23:43;;;;;;;0.63;0.47;;;14.00;88.20;;;;;;5088839;28;20039;-74
2021/11/07 09:28:50;;;;;;;1.15;0.43;;;14.20;88.90;;;;;;5090359;28;20036;-74
2021/11/07 09:31:43;;;;;;;1.45;0.50;;;14.30;88.80;;;;;;5089308;28;20404;-75
2021/11/07 09:34:21;;;;;;;1.43;0.67;;;14.70;89.70;;;;;;5084806;28;20024;-78
2021/11/07 09:36:57;;;;;;;2.13;0.52;;;15.70;90.20;;;;;;5085481;28;20089;-77
2021/11/07 09:39:37;;;;;;;1.10;0.60;;;16.70;88.70;;;;;;5087279;28;20052;-78
2021/11/07 09:44:53;;;;;;;1.17;0.40;;;18.00;81.70;;;;;;5087482;28;20484;-79
2021/11/07 09:47:19;;;;;;;1.98;0.60;;;18.50;80.10;;;;;;5071679;28;20084;-79
2021/11/07 09:49:48;;;;;;;1.10;0.32;;;19.00;78.10;;;;;;5090703;28;20040;-78
2021/11/07 09:52:22;;;;;;;3.28;0.50;;;19.30;76.00;;;;;;5089365;28;20111;-78
2021/11/07 09:54:55;;;;;;;2.97;0.70;;;19.40;74.70;;;;;;5089144;28;20032;-78
2021/11/07 09:57:23;;;;;;;2.17;0.60;;;19.40;73.00;;;;;;5087604;28;20016;-78
2021/11/07 09:59:53;;;;;;;4.68;0.73;;;19.30;71.40;;;;;;5088670;28;20107;-78
2021/11/07 10:02:19;;;;;;;2.47;0.60;;;19.00;70.90;;;;;;5071509;28;20016;-78
2021/11/07 10:04:47;;;;;;;4.75;0.90;;;18.70;70.40;;;;;;5091989;28;20027;-78
2021/11/07 10:07:23;;;;;;;4.10;0.95;;;18.40;71.30;;;;;;5091513;28;20073;-77
2021/11/07 10:10:03;;;;;;;4.75;0.75;;;17.80;71.80;;;;;;5090196;28;20028;-77
2021/11/07 10:15:05;;;;;;;3.92;0.60;;;16.90;74.00;;;;;;5087739;28;20028;-78
2021/11/07 10:17:39;;;;;;;5.82;0.60;;;16.70;75.50;;;;;;5088116;28;20606;-77
2021/11/07 10:22:53;;;;;;;4.63;0.88;;;16.40;76.50;;;;;;5090294;28;20067;-78
2021/11/07 10:25:23;;;;;;;3.42;0.70;;;16.20;76.80;;;;;;5095565;28;20401;-77
2021/11/07 10:27:56;;;;;;;5.28;0.90;;;16.20;77.20;;;;;;5090133;28;20649;-78
2021/11/07 10:30:27;;;;;;;5.30;1.00;;;16.10;77.30;;;;;;5091978;28;20024;-78
2021/11/07 10:33:01;;;;;;;3.47;1.27;;;16.10;77.80;;;;;;5092043;28;20056;-77
2021/11/07 10:36:40;;;;;;;4.95;0.93;;;16.20;78.20;;;;;;5089307;28;20024;-77
2021/11/07 10:41:41;;;;;;;6.90;1.17;;;16.70;76.60;;;;;;5092423;28;20385;-79
2021/11/07 10:45:08;;;;;;;11.57;1.60;;;16.50;76.60;;;;;;5092009;28;20030;-78
2021/11/07 10:47:38;;;;;;;7.88;1.30;;;16.30;76.00;;;;;;5093001;28;20036;-78
2021/11/07 10:53:06;;;;;;;10.80;1.33;;;15.90;76.60;;;;;;5088821;28;20400;-72
2021/11/07 10:55:33;;;;;;;4.32;1.02;;;15.90;76.90;;;;;;5090025;28;20420;-71
2021/11/07 10:58:02;;;;;;;6.88;1.30;;;15.80;77.20;;;;;;5087985;28;20682;-72
2021/11/07 11:00:29;;;;;;;6.03;1.20;;;15.80;77.40;;;;;;5089248;28;20093;-72
2021/11/07 11:03:16;;;;;;;6.32;1.10;;;15.90;77.80;;;;;;5088878;28;20548;-72
2021/11/07 11:06:03;;;;;;;7.55;1.38;;;16.00;77.60;;;;;;5087147;28;20515;-72
2021/11/07 11:08:46;;;;;;;6.32;1.40;;;16.20;76.50;;;;;;5074170;28;20043;-71
2021/11/07 11:11:32;;;;;;;8.57;1.70;;;16.10;76.60;;;;;;5088776;28;20027;-71
2021/11/07 11:14:07;;;;;;;5.43;1.38;;;16.10;76.60;;;;;;5083939;28;20021;-70
2021/11/07 11:27:01;;;;;;;12.38;1.70;;;15.60;74.30;;;;;;5088535;28;20028;-71
2021/11/07 11:32:07;;;;;;;7.68;1.48;;;15.70;74.80;;;;;;5085107;28;20016;-69
2021/11/07 11:34:40;;;;;;;4.57;0.93;;;15.70;74.40;;;;;;5088274;28;20640;-69
2021/11/07 11:37:17;;;;;;;6.90;1.30;;;15.70;74.90;;;;;;5087029;28;20484;-70
2021/11/07 11:39:48;;;;;;;5.93;1.33;;;15.80;74.20;;;;;;5087740;28;20044;-71
2021/11/07 11:42:24;;;;;;;8.65;1.48;;;15.80;74.20;;;;;;5087446;28;20020;-70
2021/11/07 11:44:53;;;;;;;8.15;1.75;;;15.80;73.90;;;;;;5087660;28;20065;-71
2021/11/07 11:47:47;;;;;;;6.47;1.23;;;15.80;73.30;;;;;;5079866;28;20085;-72
2021/11/07 11:52:54;;;;;;;6.88;2.10;;;16.40;73.80;;;;;;5081457;28;20036;-71
2021/11/07 11:55:42;;;;;;;8.98;1.40;;;16.60;72.60;;;;;;5085668;28;20032;-71
2021/11/07 12:03:43;;;;;;;8.48;1.40;;;16.30;71.20;;;;;;5086614;28;20034;-71
2021/11/07 12:06:41;;;;;;;5.47;1.30;;;16.20;71.80;;;;;;5087215;28;20028;-70
2021/11/07 12:11:56;;;;;;;9.18;1.60;;;15.80;71.50;;;;;;5087566;28;20164;-71
2021/11/07 12:14:36;;;;;;;7.50;1.50;;;15.80;71.60;;;;;;5070992;28;20008;-76
2021/11/07 12:17:07;;;;;;;8.63;1.48;;;15.80;71.10;;;;;;5085166;28;20024;-77
2021/11/07 12:19:39;;;;;;;5.25;1.33;;;15.70;70.10;;;;;;5081733;28;20024;-76
2021/11/07 12:22:33;;;;;;;8.32;1.13;;;15.70;71.00;;;;;;5082651;28;20055;-72
2021/11/07 12:25:11;;;;;;;5.30;1.30;;;16.20;73.90;;;;;;5079186;28;20032;-72
2021/11/07 12:27:47;;;;;;;6.95;1.55;;;16.60;72.40;;;;;;5082814;28;20038;-72
2021/11/07 12:30:17;;;;;;;7.43;2.05;;;16.70;69.90;;;;;;5080959;28;20040;-72
2021/11/07 12:32:46;;;;;;;8.50;1.88;;;16.60;69.10;;;;;;5086051;28;20044;-72
2021/11/07 12:40:46;;;;;;;7.88;1.38;;;16.20;68.60;;;;;;5088102;28;20038;-72
2021/11/07 12:43:15;;;;;;;8.30;1.52;;;16.20;69.60;;;;;;5088297;28;20077;-72
2021/11/07 12:45:46;;;;;;;10.63;1.98;;;16.20;69.20;;;;;;5084894;28;20110;-72
2021/11/07 12:48:33;;;;;;;7.97;1.33;;;16.50;69.60;;;;;;5081790;28;20052;-73
2021/11/07 12:51:01;;;;;;;6.40;1.40;;;16.40;69.50;;;;;;5074522;28;20039;-73
2021/11/07 12:53:29;;;;;;;8.23;1.50;;;16.60;69.40;;;;;;5081432;28;20031;-73
2021/11/07 12:55:56;;;;;;;6.03;1.23;;;17.30;69.90;;;;;;5075146;28;20020;-72
2021/11/07 12:58:22;;;;;;;6.53;1.60;;;17.90;68.00;;;;;;5083855;28;20032;-72
2021/11/07 13:00:49;;;;;;;3.75;1.20;;;18.00;66.00;;;;;;5082499;28;20024;-71
2021/11/07 13:03:17;;;;;;;9.55;1.63;;;17.70;64.80;;;;;;5082983;28;20034;-72
2021/11/07 13:05:43;;;;;;;7.50;1.70;;;17.40;64.60;;;;;;5080922;28;20024;-72
2021/11/07 13:08:18;;;;;;;5.35;1.30;;;17.10;65.10;;;;;;5080174;28;20062;-73
2021/11/07 13:11:15;;;;;;;8.25;1.40;;;16.80;65.50;;;;;;5084411;28;20083;-72
2021/11/07 13:13:48;;;;;;;7.47;1.70;;;16.50;66.10;;;;;;5083375;28;20095;-71
2021/11/07 13:21:47;;;;;;;8.13;1.73;;;16.10;67.40;;;;;;5081938;28;20021;-71
2021/11/07 13:27:19;;;;;;;5.28;1.20;;;16.20;68.30;;;;;;5023284;28;20037;-71
2021/11/07 13:29:49;;;;;;;6.80;1.13;;;16.10;67.10;;;;;;5020949;28;20045;-71
2021/11/07 13:32:30;;;;;;;5.85;1.40;;;15.90;66.80;;;;;;5024014;28;20313;-73
2021/11/07 13:35:01;;;;;;;9.27;1.92;;;15.70;67.30;;;;;;5022120;28;20152;-72
2021/11/07 13:37:39;;;;;;;7.65;1.08;;;15.60;67.40;;;;;;5010024;28;20041;-72
2021/11/07 13:40:24;;;;;;;7.80;1.40;;;15.70;68.80;;;;;;5026836;28;20033;-72
2021/11/07 13:42:51;;;;;;;8.50;1.60;;;15.90;67.80;;;;;;5025536;28;20040;-72
2021/11/07 13:45:22;;;;;;;6.22;1.50;;;15.90;67.00;;;;;;5028076;28;20898;-72
2021/11/07 13:47:49;;;;;;;5.97;1.50;;;15.80;66.50;;;;;;5028021;28;20091;-72
2021/11/07 13:50:19;;;;;;;7.40;1.60;;;15.80;66.60;;;;;;5025183;28;20116;-69
2021/11/07 13:52:45;;;;;;;7.70;1.75;;;15.80;66.80;;;;;;5027660;28;20052;-71
2021/11/07 13:55:21;;;;;;;6.45;1.25;;;15.70;66.10;;;;;;5026737;28;20041;-71
2021/11/07 13:57:48;;;;;;;7.63;1.38;;;15.80;66.80;;;;;;5027399;28;20116;-71
2021/11/07 14:00:26;;;;;;;7.65;1.70;;;15.80;67.10;;;;;;5025101;28;20037;-72
2021/11/07 14:02:54;;;;;;;7.07;1.23;;;15.80;66.80;;;;;;5028547;28;20017;-72
2021/11/07 14:05:21;;;;;;;7.07;1.40;;;15.90;67.10;;;;;;5083522;28;20108;-74
2021/11/07 14:08:05;;;;;;;7.70;1.50;;;15.90;66.60;;;;;;5086045;28;20088;-74
2021/11/07 14:10:34;;;;;;;5.43;1.38;;;15.90;66.70;;;;;;5090594;28;20044;-73
2021/11/07 14:13:07;;;;;;;6.88;1.48;;;15.80;66.20;;;;;;5086159;28;20086;-74
2021/11/07 14:15:36;;;;;;;9.52;2.20;;;15.70;67.00;;;;;;5087196;28;20119;-73
2021/11/07 14:18:16;;;;;;;5.20;1.45;;;15.80;66.80;;;;;;5086525;28;20040;-73
2021/11/07 14:21:03;;;;;;;9.48;2.03;;;15.80;67.40;;;;;;5083602;28;20024;-74
2021/11/07 14:23:39;;;;;;;8.75;1.73;;;15.90;66.80;;;;;;5083297;28;20032;-72
2021/11/07 14:26:17;;;;;;;8.30;2.15;;;15.80;66.40;;;;;;5088692;28;20028;-73
2021/11/07 14:29:08;;;;;;;7.22;1.70;;;15.70;66.80;;;;;;5076771;28;20067;-73
2021/11/07 14:31:38;;;;;;;8.18;1.80;;;15.70;66.90;;;;;;5086971;28;20667;-72
2021/11/07 14:34:11;;;;;;;7.60;1.50;;;15.60;66.50;;;;;;5088843;28;20036;-71
2021/11/07 14:36:47;;;;;;;7.03;1.42;;;15.50;66.70;;;;;;5086394;28;20024;-72
2021/11/07 14:39:43;;;;;;;7.57;2.10;;;15.50;67.00;;;;;;5084729;28;20032;-74
2021/11/07 14:44:52;;;;;;;6.38;1.25;;;15.40;67.40;;;;;;5088774;28;20024;-72
2021/11/07 14:52:53;;;;;;;8.77;1.52;;;15.40;67.30;;;;;;5084658;28;20040;-73
2021/11/07 14:55:27;;;;;;;10.70;1.58;;;15.50;67.30;;;;;;5086951;28;20024;-73
2021/11/07 14:58:20;;;;;;;5.72;1.70;;;15.50;67.50;;;;;;5085072;28;20683;-73
2021/11/07 15:00:57;;;;;;;7.30;1.80;;;15.40;67.60;;;;;;5088046;28;20373;-73
2021/11/07 15:03:29;;;;;;;6.50;2.00;;;15.30;67.40;;;;;;5088972;28;20081;-72
2021/11/07 15:08:58;;;;;;;7.97;1.67;;;15.30;67.80;;;;;;5087385;28;20040;-73
2021/11/07 15:11:34;;;;;;;8.23;1.45;;;15.30;68.00;;;;;;5072216;28;20021;-72
2021/11/07 15:14:38;;;;;;;7.93;1.65;;;15.30;67.80;;;;;;5081006;28;20027;-73
2021/11/07 15:17:39;;;;;;;8.07;1.80;;;15.30;68.20;;;;;;5081334;28;20024;-74